sensor_id;sensor_type;location;lat;lon;timestamp;P1;durP1;ratioP1;P2;durP2;ratioP2
78057;SDS011;67265;52.514;13.292;2023-03-19T00:02:04;12.10;;;7.97;;
78057;SDS011;67265;52.514;13.292;2023-03-19T00:04:43;13.13;;;8.10;;
78057;SDS011;67265;52.514;13.292;2023-03-19T00:07:10;15.60;;;8.63;;
78057;SDS011;67265;52.514;13.292;2023-03-19T00:09:37;13.80;;;8.38;;
78057;SDS011;67265;52.514;13.292;2023-03-19T00:12:04;12.80;;;8.70;;
78057;SDS011;67265;52.514;13.292;2023-03-19T00:14:31;13.13;;;7.25;;
78057;SDS011;67265;52.514;13.292;2023-03-19T00:16:57;13.95;;;9.55;;
78057;SDS011;67265;52.514;13.292;2023-03-19T00:19:24;13.77;;;8.90;;
78057;SDS011;67265;52.514;13.292;2023-03-19T00:21:50;13.95;;;10.07;;
78057;SDS011;67265;52.514;13.292;2023-03-19T00:24:17;13.32;;;8.70;;
78057;SDS011;67265;52.514;13.292;2023-03-19T00:26:44;14.90;;;7.85;;
78057;SDS011;67265;52.514;13.292;2023-03-19T00:29:10;16.20;;;9.43;;
78057;SDS011;67265;52.514;13.292;2023-03-19T00:31:37;12.10;;;8.32;;
78057;SDS011;67265;52.514;13.292;2023-03-19T00:34:05;15.45;;;9.00;;
78057;SDS011;67265;52.514;13.292;2023-03-19T00:36:33;15.77;;;8.80;;
78057;SDS011;67265;52.514;13.292;2023-03-19T00:39:00;13.13;;;9.15;;
78057;SDS011;67265;52.514;13.292;2023-03-19T00:41:27;14.32;;;9.07;;
78057;SDS011;67265;52.514;13.292;2023-03-19T00:43:54;14.23;;;9.25;;
78057;SDS011;67265;52.514;13.292;2023-03-19T00:46:22;13.75;;;8.57;;
78057;SDS011;67265;52.514;13.292;2023-03-19T00:48:50;17.05;;;9.35;;
78057;SDS011;67265;52.514;13.292;2023-03-19T00:51:20;13.43;;;9.23;;
78057;SDS011;67265;52.514;13.292;2023-03-19T00:53:48;13.82;;;8.70;;
78057;SDS011;67265;52.514;13.292;2023-03-19T00:56:15;13.40;;;9.05;;
78057;SDS011;67265;52.514;13.292;2023-03-19T00:58:43;13.57;;;8.30;;
78057;SDS011;67265;52.514;13.292;2023-03-19T01:01:12;14.13;;;8.73;;
78057;SDS011;67265;52.514;13.292;2023-03-19T01:03:41;15.18;;;9.30;;
78057;SDS011;67265;52.514;13.292;2023-03-19T01:06:07;12.95;;;8.50;;
78057;SDS011;67265;52.514;13.292;2023-03-19T01:08:33;12.68;;;8.45;;
78057;SDS011;67265;52.514;13.292;2023-03-19T01:11:04;15.70;;;9.02;;
78057;SDS011;67265;52.514;13.292;2023-03-19T01:13:32;14.45;;;8.52;;
78057;SDS011;67265;52.514;13.292;2023-03-19T01:15:58;13.65;;;8.40;;
78057;SDS011;67265;52.514;13.292;2023-03-19T01:18:25;15.07;;;8.00;;
78057;SDS011;67265;52.514;13.292;2023-03-19T01:20:52;16.27;;;8.57;;
78057;SDS011;67265;52.514;13.292;2023-03-19T01:23:18;15.18;;;8.25;;
78057;SDS011;67265;52.514;13.292;2023-03-19T01:25:45;13.63;;;8.13;;
78057;SDS011;67265;52.514;13.292;2023-03-19T01:28:11;14.68;;;8.43;;
78057;SDS011;67265;52.514;13.292;2023-03-19T01:30:38;12.82;;;6.97;;
78057;SDS011;67265;52.514;13.292;2023-03-19T01:33:06;15.07;;;9.02;;
78057;SDS011;67265;52.514;13.292;2023-03-19T01:35:33;13.55;;;8.00;;
78057;SDS011;67265;52.514;13.292;2023-03-19T01:38:00;12.52;;;7.13;;
78057;SDS011;67265;52.514;13.292;2023-03-19T01:40:26;13.95;;;7.75;;
78057;SDS011;67265;52.514;13.292;2023-03-19T01:43:09;14.18;;;8.07;;
78057;SDS011;67265;52.514;13.292;2023-03-19T01:45:39;13.48;;;6.95;;
78057;SDS011;67265;52.514;13.292;2023-03-19T01:51:04;14.05;;;8.45;;
78057;SDS011;67265;52.514;13.292;2023-03-19T01:53:33;12.27;;;8.70;;
78057;SDS011;67265;52.514;13.292;2023-03-19T01:56:11;13.77;;;7.93;;
78057;SDS011;67265;52.514;13.292;2023-03-19T01:58:40;13.65;;;7.85;;
78057;SDS011;67265;52.514;13.292;2023-03-19T02:01:09;12.73;;;8.10;;
78057;SDS011;67265;52.514;13.292;2023-03-19T02:03:36;13.20;;;7.72;;
78057;SDS011;67265;52.514;13.292;2023-03-19T02:06:03;13.07;;;8.25;;
78057;SDS011;67265;52.514;13.292;2023-03-19T02:08:30;12.55;;;7.93;;
78057;SDS011;67265;52.514;13.292;2023-03-19T02:10:57;15.13;;;8.43;;
78057;SDS011;67265;52.514;13.292;2023-03-19T02:13:26;12.93;;;8.10;;
78057;SDS011;67265;52.514;13.292;2023-03-19T02:15:53;15.30;;;8.38;;
78057;SDS011;67265;52.514;13.292;2023-03-19T02:18:20;15.57;;;8.38;;
78057;SDS011;67265;52.514;13.292;2023-03-19T02:21:04;14.52;;;8.57;;
78057;SDS011;67265;52.514;13.292;2023-03-19T02:26:50;12.52;;;7.05;;
78057;SDS011;67265;52.514;13.292;2023-03-19T02:29:17;11.80;;;6.88;;
78057;SDS011;67265;52.514;13.292;2023-03-19T02:31:43;13.07;;;7.97;;
78057;SDS011;67265;52.514;13.292;2023-03-19T02:36:57;14.35;;;8.32;;
78057;SDS011;67265;52.514;13.292;2023-03-19T02:41:57;16.23;;;9.10;;
78057;SDS011;67265;52.514;13.292;2023-03-19T02:44:24;13.20;;;8.32;;
78057;SDS011;67265;52.514;13.292;2023-03-19T02:46:51;14.00;;;8.68;;
78057;SDS011;67265;52.514;13.292;2023-03-19T02:49:18;17.77;;;8.43;;
78057;SDS011;67265;52.514;13.292;2023-03-19T02:51:45;14.60;;;9.25;;
78057;SDS011;67265;52.514;13.292;2023-03-19T02:54:11;16.67;;;8.93;;
78057;SDS011;67265;52.514;13.292;2023-03-19T02:56:38;18.05;;;9.02;;
78057;SDS011;67265;52.514;13.292;2023-03-19T02:59:04;14.90;;;8.48;;
78057;SDS011;67265;52.514;13.292;2023-03-19T03:01:31;17.40;;;9.30;;
78057;SDS011;67265;52.514;13.292;2023-03-19T03:03:58;13.82;;;9.07;;
78057;SDS011;67265;52.514;13.292;2023-03-19T03:06:25;15.55;;;8.60;;
78057;SDS011;67265;52.514;13.292;2023-03-19T03:08:51;15.27;;;8.48;;
78057;SDS011;67265;52.514;13.292;2023-03-19T03:11:18;14.30;;;8.90;;
78057;SDS011;67265;52.514;13.292;2023-03-19T03:13:44;14.95;;;8.57;;
78057;SDS011;67265;52.514;13.292;2023-03-19T03:16:11;14.32;;;8.80;;
78057;SDS011;67265;52.514;13.292;2023-03-19T03:18:37;16.23;;;8.30;;
78057;SDS011;67265;52.514;13.292;2023-03-19T03:21:04;12.65;;;8.60;;
78057;SDS011;67265;52.514;13.292;2023-03-19T03:23:30;15.85;;;9.38;;
78057;SDS011;67265;52.514;13.292;2023-03-19T03:25:57;15.65;;;10.00;;
78057;SDS011;67265;52.514;13.292;2023-03-19T03:28:23;15.43;;;8.68;;
78057;SDS011;67265;52.514;13.292;2023-03-19T03:30:50;13.75;;;8.40;;
78057;SDS011;67265;52.514;13.292;2023-03-19T03:33:16;15.68;;;9.50;;
78057;SDS011;67265;52.514;13.292;2023-03-19T03:35:43;14.38;;;8.65;;
78057;SDS011;67265;52.514;13.292;2023-03-19T03:38:10;17.77;;;9.40;;
78057;SDS011;67265;52.514;13.292;2023-03-19T03:40:36;14.68;;;8.55;;
78057;SDS011;67265;52.514;13.292;2023-03-19T03:43:03;14.40;;;8.95;;
78057;SDS011;67265;52.514;13.292;2023-03-19T03:45:29;13.63;;;8.70;;
78057;SDS011;67265;52.514;13.292;2023-03-19T03:47:56;15.85;;;8.90;;
78057;SDS011;67265;52.514;13.292;2023-03-19T03:50:22;15.40;;;8.75;;
78057;SDS011;67265;52.514;13.292;2023-03-19T03:52:49;13.35;;;8.32;;
78057;SDS011;67265;52.514;13.292;2023-03-19T03:55:16;13.55;;;8.60;;
78057;SDS011;67265;52.514;13.292;2023-03-19T03:57:43;16.45;;;8.45;;
78057;SDS011;67265;52.514;13.292;2023-03-19T04:00:09;15.75;;;9.35;;
78057;SDS011;67265;52.514;13.292;2023-03-19T04:02:37;17.40;;;8.88;;
78057;SDS011;67265;52.514;13.292;2023-03-19T04:05:04;13.70;;;9.25;;
78057;SDS011;67265;52.514;13.292;2023-03-19T04:07:31;16.52;;;9.13;;
78057;SDS011;67265;52.514;13.292;2023-03-19T04:09:58;14.70;;;9.23;;
78057;SDS011;67265;52.514;13.292;2023-03-19T04:12:24;15.65;;;9.35;;
78057;SDS011;67265;52.514;13.292;2023-03-19T04:14:51;14.48;;;8.63;;
78057;SDS011;67265;52.514;13.292;2023-03-19T04:17:17;15.50;;;8.98;;
78057;SDS011;67265;52.514;13.292;2023-03-19T04:19:44;13.20;;;8.57;;
78057;SDS011;67265;52.514;13.292;2023-03-19T04:22:10;13.55;;;9.32;;
78057;SDS011;67265;52.514;13.292;2023-03-19T04:24:38;14.93;;;8.32;;
78057;SDS011;67265;52.514;13.292;2023-03-19T04:27:05;15.80;;;10.02;;
78057;SDS011;67265;52.514;13.292;2023-03-19T04:29:32;14.60;;;8.82;;
78057;SDS011;67265;52.514;13.292;2023-03-19T04:31:58;14.45;;;9.27;;
78057;SDS011;67265;52.514;13.292;2023-03-19T04:34:25;12.68;;;8.18;;
78057;SDS011;67265;52.514;13.292;2023-03-19T04:36:52;17.08;;;10.18;;
78057;SDS011;67265;52.514;13.292;2023-03-19T04:39:18;16.90;;;8.77;;
78057;SDS011;67265;52.514;13.292;2023-03-19T04:41:45;14.20;;;8.35;;
78057;SDS011;67265;52.514;13.292;2023-03-19T04:44:11;16.60;;;9.02;;
78057;SDS011;67265;52.514;13.292;2023-03-19T04:46:38;17.13;;;9.27;;
78057;SDS011;67265;52.514;13.292;2023-03-19T04:49:05;16.88;;;9.60;;
78057;SDS011;67265;52.514;13.292;2023-03-19T04:51:31;16.85;;;9.63;;
78057;SDS011;67265;52.514;13.292;2023-03-19T04:53:58;17.65;;;9.45;;
78057;SDS011;67265;52.514;13.292;2023-03-19T04:56:25;17.00;;;9.07;;
78057;SDS011;67265;52.514;13.292;2023-03-19T04:58:52;14.38;;;9.95;;
78057;SDS011;67265;52.514;13.292;2023-03-19T05:01:19;13.52;;;9.35;;
78057;SDS011;67265;52.514;13.292;2023-03-19T05:03:46;15.57;;;8.73;;
78057;SDS011;67265;52.514;13.292;2023-03-19T05:06:12;17.17;;;8.63;;
78057;SDS011;67265;52.514;13.292;2023-03-19T05:08:39;15.55;;;9.57;;
78057;SDS011;67265;52.514;13.292;2023-03-19T05:11:05;17.35;;;9.45;;
78057;SDS011;67265;52.514;13.292;2023-03-19T05:13:32;16.38;;;10.48;;
78057;SDS011;67265;52.514;13.292;2023-03-19T05:15:59;17.33;;;9.48;;
78057;SDS011;67265;52.514;13.292;2023-03-19T05:18:25;17.73;;;11.45;;
78057;SDS011;67265;52.514;13.292;2023-03-19T05:20:52;17.88;;;10.77;;
78057;SDS011;67265;52.514;13.292;2023-03-19T05:23:19;18.15;;;10.60;;
78057;SDS011;67265;52.514;13.292;2023-03-19T05:25:46;18.17;;;10.98;;
78057;SDS011;67265;52.514;13.292;2023-03-19T05:28:13;18.02;;;11.00;;
78057;SDS011;67265;52.514;13.292;2023-03-19T05:30:40;16.52;;;10.25;;
78057;SDS011;67265;52.514;13.292;2023-03-19T05:33:06;20.35;;;11.63;;
78057;SDS011;67265;52.514;13.292;2023-03-19T05:35:33;20.80;;;11.73;;
78057;SDS011;67265;52.514;13.292;2023-03-19T05:38:00;19.52;;;12.02;;
78057;SDS011;67265;52.514;13.292;2023-03-19T05:40:27;21.73;;;12.38;;
78057;SDS011;67265;52.514;13.292;2023-03-19T05:42:53;23.70;;;13.20;;
78057;SDS011;67265;52.514;13.292;2023-03-19T05:45:20;22.25;;;14.27;;
78057;SDS011;67265;52.514;13.292;2023-03-19T05:47:47;21.77;;;12.52;;
78057;SDS011;67265;52.514;13.292;2023-03-19T05:50:14;22.40;;;13.90;;
78057;SDS011;67265;52.514;13.292;2023-03-19T05:52:42;22.55;;;14.55;;
78057;SDS011;67265;52.514;13.292;2023-03-19T05:55:08;26.27;;;14.32;;
78057;SDS011;67265;52.514;13.292;2023-03-19T05:57:35;22.23;;;13.50;;
78057;SDS011;67265;52.514;13.292;2023-03-19T06:00:03;26.30;;;14.93;;
78057;SDS011;67265;52.514;13.292;2023-03-19T06:02:32;24.10;;;14.15;;
78057;SDS011;67265;52.514;13.292;2023-03-19T06:04:59;22.63;;;13.73;;
78057;SDS011;67265;52.514;13.292;2023-03-19T06:07:26;21.92;;;12.80;;
78057;SDS011;67265;52.514;13.292;2023-03-19T06:09:52;24.25;;;14.45;;
78057;SDS011;67265;52.514;13.292;2023-03-19T06:12:19;24.80;;;13.60;;
78057;SDS011;67265;52.514;13.292;2023-03-19T06:14:45;25.15;;;15.07;;
78057;SDS011;67265;52.514;13.292;2023-03-19T06:17:13;23.00;;;13.45;;
78057;SDS011;67265;52.514;13.292;2023-03-19T06:19:39;24.13;;;13.82;;
78057;SDS011;67265;52.514;13.292;2023-03-19T06:22:06;21.33;;;13.25;;
78057;SDS011;67265;52.514;13.292;2023-03-19T06:24:32;19.85;;;11.98;;
78057;SDS011;67265;52.514;13.292;2023-03-19T06:26:59;21.02;;;12.55;;
78057;SDS011;67265;52.514;13.292;2023-03-19T06:29:25;20.48;;;12.40;;
78057;SDS011;67265;52.514;13.292;2023-03-19T06:31:53;18.92;;;11.57;;
78057;SDS011;67265;52.514;13.292;2023-03-19T06:34:23;16.45;;;11.35;;
78057;SDS011;67265;52.514;13.292;2023-03-19T06:36:49;13.63;;;8.93;;
78057;SDS011;67265;52.514;13.292;2023-03-19T06:39:18;14.82;;;9.55;;
78057;SDS011;67265;52.514;13.292;2023-03-19T06:41:46;13.43;;;9.27;;
78057;SDS011;67265;52.514;13.292;2023-03-19T06:44:13;14.57;;;9.02;;
78057;SDS011;67265;52.514;13.292;2023-03-19T06:46:40;16.33;;;9.40;;
78057;SDS011;67265;52.514;13.292;2023-03-19T06:49:06;17.80;;;9.02;;
78057;SDS011;67265;52.514;13.292;2023-03-19T06:51:33;16.05;;;9.77;;
78057;SDS011;67265;52.514;13.292;2023-03-19T06:54:00;17.77;;;11.05;;
78057;SDS011;67265;52.514;13.292;2023-03-19T06:56:26;17.13;;;10.80;;
78057;SDS011;67265;52.514;13.292;2023-03-19T06:58:54;18.80;;;10.43;;
78057;SDS011;67265;52.514;13.292;2023-03-19T07:01:21;18.23;;;10.23;;
78057;SDS011;67265;52.514;13.292;2023-03-19T07:03:48;21.23;;;12.02;;
78057;SDS011;67265;52.514;13.292;2023-03-19T07:06:15;20.48;;;12.52;;
78057;SDS011;67265;52.514;13.292;2023-03-19T07:08:42;19.10;;;12.50;;
78057;SDS011;67265;52.514;13.292;2023-03-19T07:11:11;22.67;;;11.88;;
78057;SDS011;67265;52.514;13.292;2023-03-19T07:13:38;23.65;;;12.43;;
78057;SDS011;67265;52.514;13.292;2023-03-19T07:16:05;21.08;;;11.60;;
78057;SDS011;67265;52.514;13.292;2023-03-19T07:18:32;20.70;;;11.70;;
78057;SDS011;67265;52.514;13.292;2023-03-19T07:20:58;18.77;;;11.63;;
78057;SDS011;67265;52.514;13.292;2023-03-19T07:23:25;23.00;;;13.20;;
78057;SDS011;67265;52.514;13.292;2023-03-19T07:25:51;26.25;;;14.10;;
78057;SDS011;67265;52.514;13.292;2023-03-19T07:28:18;28.92;;;15.57;;
78057;SDS011;67265;52.514;13.292;2023-03-19T07:30:44;29.35;;;15.85;;
78057;SDS011;67265;52.514;13.292;2023-03-19T07:33:11;27.17;;;15.57;;
78057;SDS011;67265;52.514;13.292;2023-03-19T07:35:37;25.88;;;13.20;;
78057;SDS011;67265;52.514;13.292;2023-03-19T07:38:04;28.85;;;16.50;;
78057;SDS011;67265;52.514;13.292;2023-03-19T07:40:30;26.15;;;15.77;;
78057;SDS011;67265;52.514;13.292;2023-03-19T07:42:58;28.65;;;14.90;;
78057;SDS011;67265;52.514;13.292;2023-03-19T07:45:25;29.20;;;16.30;;
78057;SDS011;67265;52.514;13.292;2023-03-19T07:47:51;30.50;;;15.60;;
78057;SDS011;67265;52.514;13.292;2023-03-19T07:50:18;29.52;;;16.02;;
78057;SDS011;67265;52.514;13.292;2023-03-19T07:52:45;24.90;;;15.35;;
78057;SDS011;67265;52.514;13.292;2023-03-19T07:55:13;23.55;;;15.68;;
78057;SDS011;67265;52.514;13.292;2023-03-19T07:57:40;23.85;;;14.93;;
78057;SDS011;67265;52.514;13.292;2023-03-19T08:00:07;25.80;;;14.77;;
78057;SDS011;67265;52.514;13.292;2023-03-19T08:02:35;29.75;;;16.52;;
78057;SDS011;67265;52.514;13.292;2023-03-19T08:05:02;27.27;;;15.48;;
78057;SDS011;67265;52.514;13.292;2023-03-19T08:07:30;26.25;;;15.25;;
78057;SDS011;67265;52.514;13.292;2023-03-19T08:09:57;23.90;;;14.30;;
78057;SDS011;67265;52.514;13.292;2023-03-19T08:12:24;24.33;;;14.52;;
78057;SDS011;67265;52.514;13.292;2023-03-19T08:14:51;24.83;;;13.95;;
78057;SDS011;67265;52.514;13.292;2023-03-19T08:17:17;22.52;;;14.32;;
78057;SDS011;67265;52.514;13.292;2023-03-19T08:19:44;23.35;;;13.50;;
78057;SDS011;67265;52.514;13.292;2023-03-19T08:22:11;20.70;;;13.93;;
78057;SDS011;67265;52.514;13.292;2023-03-19T08:24:38;22.27;;;13.77;;
78057;SDS011;67265;52.514;13.292;2023-03-19T08:27:05;20.60;;;12.52;;
78057;SDS011;67265;52.514;13.292;2023-03-19T08:29:33;26.67;;;14.38;;
78057;SDS011;67265;52.514;13.292;2023-03-19T08:31:59;27.15;;;16.48;;
78057;SDS011;67265;52.514;13.292;2023-03-19T08:34:26;24.83;;;15.65;;
78057;SDS011;67265;52.514;13.292;2023-03-19T08:36:53;26.77;;;15.35;;
78057;SDS011;67265;52.514;13.292;2023-03-19T08:39:19;30.83;;;17.83;;
78057;SDS011;67265;52.514;13.292;2023-03-19T08:41:46;26.20;;;15.70;;
78057;SDS011;67265;52.514;13.292;2023-03-19T08:44:12;27.35;;;15.70;;
78057;SDS011;67265;52.514;13.292;2023-03-19T08:46:39;26.05;;;16.13;;
78057;SDS011;67265;52.514;13.292;2023-03-19T08:49:07;31.92;;;18.17;;
78057;SDS011;67265;52.514;13.292;2023-03-19T08:51:34;28.35;;;18.17;;
78057;SDS011;67265;52.514;13.292;2023-03-19T08:54:01;28.20;;;16.50;;
78057;SDS011;67265;52.514;13.292;2023-03-19T08:56:28;29.63;;;17.63;;
78057;SDS011;67265;52.514;13.292;2023-03-19T08:58:55;27.08;;;15.77;;
78057;SDS011;67265;52.514;13.292;2023-03-19T09:01:22;27.77;;;16.25;;
78057;SDS011;67265;52.514;13.292;2023-03-19T09:03:49;28.80;;;16.05;;
78057;SDS011;67265;52.514;13.292;2023-03-19T09:06:16;29.45;;;17.33;;
78057;SDS011;67265;52.514;13.292;2023-03-19T09:08:42;29.60;;;16.30;;
78057;SDS011;67265;52.514;13.292;2023-03-19T09:11:09;28.38;;;16.80;;
78057;SDS011;67265;52.514;13.292;2023-03-19T09:13:36;28.73;;;16.77;;
78057;SDS011;67265;52.514;13.292;2023-03-19T09:16:03;23.75;;;15.32;;
78057;SDS011;67265;52.514;13.292;2023-03-19T09:18:30;23.17;;;14.70;;
78057;SDS011;67265;52.514;13.292;2023-03-19T09:20:57;25.02;;;13.77;;
78057;SDS011;67265;52.514;13.292;2023-03-19T09:23:24;24.73;;;15.30;;
78057;SDS011;67265;52.514;13.292;2023-03-19T09:25:51;22.75;;;14.38;;
78057;SDS011;67265;52.514;13.292;2023-03-19T09:28:18;22.58;;;14.27;;
78057;SDS011;67265;52.514;13.292;2023-03-19T09:30:46;22.38;;;13.82;;
78057;SDS011;67265;52.514;13.292;2023-03-19T09:33:13;22.88;;;13.77;;
78057;SDS011;67265;52.514;13.292;2023-03-19T09:35:41;23.15;;;13.75;;
78057;SDS011;67265;52.514;13.292;2023-03-19T09:38:08;18.88;;;12.05;;
78057;SDS011;67265;52.514;13.292;2023-03-19T09:40:40;22.95;;;14.38;;
78057;SDS011;67265;52.514;13.292;2023-03-19T09:43:15;20.38;;;13.93;;
78057;SDS011;67265;52.514;13.292;2023-03-19T09:45:45;19.27;;;12.73;;
78057;SDS011;67265;52.514;13.292;2023-03-19T09:48:18;17.20;;;11.27;;
78057;SDS011;67265;52.514;13.292;2023-03-19T09:50:47;14.93;;;10.57;;
78057;SDS011;67265;52.514;13.292;2023-03-19T09:56:03;13.55;;;8.52;;
78057;SDS011;67265;52.514;13.292;2023-03-19T09:58:32;14.20;;;9.60;;
78057;SDS011;67265;52.514;13.292;2023-03-19T10:00:59;16.67;;;10.23;;
78057;SDS011;67265;52.514;13.292;2023-03-19T10:08:53;16.55;;;10.52;;
78057;SDS011;67265;52.514;13.292;2023-03-19T10:11:53;14.98;;;9.38;;
78057;SDS011;67265;52.514;13.292;2023-03-19T10:16:57;13.10;;;9.85;;
78057;SDS011;67265;52.514;13.292;2023-03-19T10:19:38;15.38;;;8.57;;
78057;SDS011;67265;52.514;13.292;2023-03-19T10:22:10;14.68;;;9.52;;
78057;SDS011;67265;52.514;13.292;2023-03-19T10:24:49;14.52;;;9.40;;
78057;SDS011;67265;52.514;13.292;2023-03-19T10:27:19;14.63;;;8.93;;
78057;SDS011;67265;52.514;13.292;2023-03-19T10:29:46;14.20;;;9.00;;
78057;SDS011;67265;52.514;13.292;2023-03-19T10:32:20;13.27;;;9.40;;
78057;SDS011;67265;52.514;13.292;2023-03-19T10:34:54;11.20;;;8.13;;
78057;SDS011;67265;52.514;13.292;2023-03-19T10:37:25;12.63;;;8.63;;
78057;SDS011;67265;52.514;13.292;2023-03-19T10:39:57;13.40;;;8.50;;
78057;SDS011;67265;52.514;13.292;2023-03-19T10:45:28;11.57;;;7.93;;
78057;SDS011;67265;52.514;13.292;2023-03-19T10:50:46;13.32;;;8.70;;
78057;SDS011;67265;52.514;13.292;2023-03-19T10:55:54;11.13;;;8.15;;
78057;SDS011;67265;52.514;13.292;2023-03-19T10:58:24;11.52;;;7.80;;
78057;SDS011;67265;52.514;13.292;2023-03-19T11:01:08;12.00;;;7.43;;
78057;SDS011;67265;52.514;13.292;2023-03-19T11:08:54;9.02;;;7.28;;
78057;SDS011;67265;52.514;13.292;2023-03-19T11:11:34;12.80;;;8.25;;
78057;SDS011;67265;52.514;13.292;2023-03-19T11:14:06;12.43;;;8.15;;
78057;SDS011;67265;52.514;13.292;2023-03-19T11:19:42;11.48;;;7.45;;
78057;SDS011;67265;52.514;13.292;2023-03-19T11:22:16;9.32;;;5.88;;
78057;SDS011;67265;52.514;13.292;2023-03-19T11:24:49;8.70;;;6.30;;
78057;SDS011;67265;52.514;13.292;2023-03-19T11:27:25;8.15;;;6.10;;
78057;SDS011;67265;52.514;13.292;2023-03-19T11:29:53;7.95;;;5.97;;
78057;SDS011;67265;52.514;13.292;2023-03-19T11:32:32;8.35;;;5.85;;
78057;SDS011;67265;52.514;13.292;2023-03-19T11:37:54;9.15;;;5.32;;
78057;SDS011;67265;52.514;13.292;2023-03-19T11:40:30;7.75;;;5.60;;
78057;SDS011;67265;52.514;13.292;2023-03-19T11:43:23;8.13;;;5.88;;
78057;SDS011;67265;52.514;13.292;2023-03-19T11:46:08;9.68;;;6.07;;
78057;SDS011;67265;52.514;13.292;2023-03-19T11:51:49;7.90;;;5.22;;
78057;SDS011;67265;52.514;13.292;2023-03-19T12:08:29;7.57;;;5.28;;
78057;SDS011;67265;52.514;13.292;2023-03-19T12:13:50;8.15;;;4.90;;
78057;SDS011;67265;52.514;13.292;2023-03-19T12:16:31;7.13;;;4.70;;
78057;SDS011;67265;52.514;13.292;2023-03-19T12:30:31;8.02;;;5.72;;
78057;SDS011;67265;52.514;13.292;2023-03-19T12:35:33;8.05;;;5.55;;
78057;SDS011;67265;52.514;13.292;2023-03-19T12:38:08;8.65;;;4.40;;
78057;SDS011;67265;52.514;13.292;2023-03-19T12:40:55;7.60;;;5.57;;
78057;SDS011;67265;52.514;13.292;2023-03-19T12:46:18;8.40;;;5.68;;
78057;SDS011;67265;52.514;13.292;2023-03-19T12:51:47;9.10;;;5.15;;
78057;SDS011;67265;52.514;13.292;2023-03-19T12:57:33;8.25;;;4.82;;
78057;SDS011;67265;52.514;13.292;2023-03-19T12:59:57;7.93;;;4.20;;
78057;SDS011;67265;52.514;13.292;2023-03-19T13:02:32;8.25;;;4.28;;
78057;SDS011;67265;52.514;13.292;2023-03-19T13:05:06;7.70;;;5.10;;
78057;SDS011;67265;52.514;13.292;2023-03-19T13:10:19;8.15;;;5.30;;
78057;SDS011;67265;52.514;13.292;2023-03-19T13:12:47;7.82;;;5.00;;
78057;SDS011;67265;52.514;13.292;2023-03-19T13:23:01;9.77;;;5.80;;
78057;SDS011;67265;52.514;13.292;2023-03-19T13:25:37;7.25;;;4.93;;
78057;SDS011;67265;52.514;13.292;2023-03-19T13:28:08;7.68;;;5.60;;
78057;SDS011;67265;52.514;13.292;2023-03-19T13:30:36;6.70;;;4.65;;
78057;SDS011;67265;52.514;13.292;2023-03-19T13:33:16;8.32;;;4.90;;
78057;SDS011;67265;52.514;13.292;2023-03-19T13:35:50;6.50;;;4.25;;
78057;SDS011;67265;52.514;13.292;2023-03-19T13:40:48;8.82;;;5.40;;
78057;SDS011;67265;52.514;13.292;2023-03-19T13:43:58;9.90;;;5.55;;
78057;SDS011;67265;52.514;13.292;2023-03-19T13:48:46;6.28;;;5.20;;
78057;SDS011;67265;52.514;13.292;2023-03-19T13:53:51;7.50;;;5.43;;
78057;SDS011;67265;52.514;13.292;2023-03-19T13:59:27;7.13;;;4.78;;
78057;SDS011;67265;52.514;13.292;2023-03-19T14:01:55;8.52;;;5.97;;
78057;SDS011;67265;52.514;13.292;2023-03-19T14:04:26;10.15;;;6.07;;
78057;SDS011;67265;52.514;13.292;2023-03-19T14:06:56;8.05;;;5.60;;
78057;SDS011;67265;52.514;13.292;2023-03-19T14:09:49;9.25;;;5.10;;
78057;SDS011;67265;52.514;13.292;2023-03-19T14:12:33;6.72;;;4.72;;
78057;SDS011;67265;52.514;13.292;2023-03-19T14:20:21;11.43;;;5.57;;
78057;SDS011;67265;52.514;13.292;2023-03-19T14:31:39;8.05;;;5.13;;
78057;SDS011;67265;52.514;13.292;2023-03-19T14:34:15;8.82;;;5.45;;
78057;SDS011;67265;52.514;13.292;2023-03-19T14:36:51;6.35;;;4.68;;
78057;SDS011;67265;52.514;13.292;2023-03-19T14:39:24;8.73;;;4.60;;
78057;SDS011;67265;52.514;13.292;2023-03-19T14:42:06;6.78;;;4.80;;
78057;SDS011;67265;52.514;13.292;2023-03-19T14:47:18;6.88;;;4.75;;
78057;SDS011;67265;52.514;13.292;2023-03-19T14:49:53;7.72;;;4.13;;
78057;SDS011;67265;52.514;13.292;2023-03-19T14:52:45;8.68;;;4.93;;
78057;SDS011;67265;52.514;13.292;2023-03-19T14:55:36;7.97;;;4.82;;
78057;SDS011;67265;52.514;13.292;2023-03-19T14:58:03;7.13;;;4.35;;
78057;SDS011;67265;52.514;13.292;2023-03-19T15:00:49;8.38;;;4.82;;
78057;SDS011;67265;52.514;13.292;2023-03-19T15:03:21;7.90;;;4.60;;
78057;SDS011;67265;52.514;13.292;2023-03-19T15:05:56;8.80;;;5.43;;
78057;SDS011;67265;52.514;13.292;2023-03-19T15:08:24;7.13;;;4.35;;
78057;SDS011;67265;52.514;13.292;2023-03-19T15:13:27;5.90;;;4.15;;
78057;SDS011;67265;52.514;13.292;2023-03-19T15:19:24;7.68;;;4.40;;
78057;SDS011;67265;52.514;13.292;2023-03-19T15:22:02;7.20;;;5.13;;
78057;SDS011;67265;52.514;13.292;2023-03-19T15:24:29;5.40;;;3.88;;
78057;SDS011;67265;52.514;13.292;2023-03-19T15:29:52;6.40;;;4.28;;
78057;SDS011;67265;52.514;13.292;2023-03-19T15:32:29;9.25;;;5.30;;
78057;SDS011;67265;52.514;13.292;2023-03-19T15:35:25;7.40;;;4.68;;
78057;SDS011;67265;52.514;13.292;2023-03-19T15:37:54;5.70;;;4.50;;
78057;SDS011;67265;52.514;13.292;2023-03-19T15:40:25;6.03;;;4.30;;
78057;SDS011;67265;52.514;13.292;2023-03-19T15:42:56;7.18;;;4.50;;
78057;SDS011;67265;52.514;13.292;2023-03-19T15:45:25;7.82;;;4.45;;
78057;SDS011;67265;52.514;13.292;2023-03-19T15:50:20;7.30;;;4.18;;
78057;SDS011;67265;52.514;13.292;2023-03-19T15:52:52;6.93;;;4.40;;
78057;SDS011;67265;52.514;13.292;2023-03-19T15:55:22;11.20;;;5.10;;
78057;SDS011;67265;52.514;13.292;2023-03-19T15:57:50;7.03;;;4.80;;
78057;SDS011;67265;52.514;13.292;2023-03-19T16:00:16;7.32;;;4.20;;
78057;SDS011;67265;52.514;13.292;2023-03-19T16:02:45;7.75;;;4.72;;
78057;SDS011;67265;52.514;13.292;2023-03-19T16:07:51;7.95;;;5.05;;
78057;SDS011;67265;52.514;13.292;2023-03-19T16:10:35;7.45;;;5.05;;
78057;SDS011;67265;52.514;13.292;2023-03-19T16:16:16;7.95;;;5.82;;
78057;SDS011;67265;52.514;13.292;2023-03-19T16:18:46;7.07;;;4.88;;
78057;SDS011;67265;52.514;13.292;2023-03-19T16:21:31;8.23;;;5.43;;
78057;SDS011;67265;52.514;13.292;2023-03-19T16:24:03;9.52;;;5.47;;
78057;SDS011;67265;52.514;13.292;2023-03-19T16:26:39;7.45;;;5.55;;
78057;SDS011;67265;52.514;13.292;2023-03-19T16:31:58;9.57;;;5.53;;
78057;SDS011;67265;52.514;13.292;2023-03-19T16:34:28;7.72;;;5.20;;
78057;SDS011;67265;52.514;13.292;2023-03-19T16:47:43;7.97;;;4.90;;
78057;SDS011;67265;52.514;13.292;2023-03-19T16:50:11;8.05;;;4.45;;
78057;SDS011;67265;52.514;13.292;2023-03-19T16:52:38;12.25;;;5.75;;
78057;SDS011;67265;52.514;13.292;2023-03-19T16:55:19;6.70;;;5.28;;
78057;SDS011;67265;52.514;13.292;2023-03-19T17:00:36;7.97;;;5.50;;
78057;SDS011;67265;52.514;13.292;2023-03-19T17:03:05;9.85;;;5.65;;
78057;SDS011;67265;52.514;13.292;2023-03-19T17:05:37;9.57;;;5.18;;
78057;SDS011;67265;52.514;13.292;2023-03-19T17:08:04;8.13;;;5.47;;
78057;SDS011;67265;52.514;13.292;2023-03-19T17:10:30;8.50;;;6.18;;